sensor_id;sensor_type;location;lat;lon;timestamp;pressure;altitude;pressure_sealevel;temperature;humidity
45813;BME280;31519;45.408;10.962;2023-03-20T00:02:00;101077.16;;;15.06;85.96
45813;BME280;31519;45.408;10.962;2023-03-20T00:04:28;101075.28;;;15.07;84.38
45813;BME280;31519;45.408;10.962;2023-03-20T00:06:56;101076.06;;;15.07;84.20
45813;BME280;31519;45.408;10.962;2023-03-20T00:09:24;101073.38;;;14.90;84.44
45813;BME280;31519;45.408;10.962;2023-03-20T00:11:53;101074.34;;;15.03;84.12
45813;BME280;31519;45.408;10.962;2023-03-20T00:14:22;101078.63;;;14.87;84.11
45813;BME280;31519;45.408;10.962;2023-03-20T00:16:51;101066.94;;;14.91;84.13
45813;BME280;31519;45.408;10.962;2023-03-20T00:19:20;101078.78;;;14.82;84.83
45813;BME280;31519;45.408;10.962;2023-03-20T00:21:53;101072.63;;;14.73;84.98
45813;BME280;31519;45.408;10.962;2023-03-20T00:24:22;101075.09;;;15.03;83.47
45813;BME280;31519;45.408;10.962;2023-03-20T00:26:50;101074.59;;;15.19;82.40
45813;BME280;31519;45.408;10.962;2023-03-20T00:29:26;101084.09;;;14.99;83.24
45813;BME280;31519;45.408;10.962;2023-03-20T00:31:54;101074.13;;;15.08;82.30
45813;BME280;31519;45.408;10.962;2023-03-20T00:34:23;101082.91;;;14.71;84.08
45813;BME280;31519;45.408;10.962;2023-03-20T00:36:52;101077.84;;;14.60;84.30
45813;BME280;31519;45.408;10.962;2023-03-20T00:39:20;101088.44;;;14.66;84.10
45813;BME280;31519;45.408;10.962;2023-03-20T00:41:54;101077.38;;;14.50;83.56
45813;BME280;31519;45.408;10.962;2023-03-20T00:44:24;101076.59;;;14.58;82.99
45813;BME280;31519;45.408;10.962;2023-03-20T00:46:56;101079.41;;;14.44;81.89
45813;BME280;31519;45.408;10.962;2023-03-20T00:49:28;101066.31;;;14.34;80.80
45813;BME280;31519;45.408;10.962;2023-03-20T00:51:56;101066.91;;;14.05;79.99
45813;BME280;31519;45.408;10.962;2023-03-20T00:54:25;101074.16;;;13.96;79.52
45813;BME280;31519;45.408;10.962;2023-03-20T00:59:25;101065.19;;;14.01;78.82
45813;BME280;31519;45.408;10.962;2023-03-20T01:01:55;101063.16;;;14.06;77.81
45813;BME280;31519;45.408;10.962;2023-03-20T01:04:23;101070.81;;;13.91;78.68
45813;BME280;31519;45.408;10.962;2023-03-20T01:06:51;101072.69;;;13.82;79.35
45813;BME280;31519;45.408;10.962;2023-03-20T01:09:19;101071.13;;;13.89;78.69
45813;BME280;31519;45.408;10.962;2023-03-20T01:11:47;101068.53;;;14.24;77.02
45813;BME280;31519;45.408;10.962;2023-03-20T01:14:15;101067.41;;;14.25;77.13
45813;BME280;31519;45.408;10.962;2023-03-20T01:16:43;101067.88;;;14.18;76.71
45813;BME280;31519;45.408;10.962;2023-03-20T01:19:12;101063.41;;;13.79;78.02
45813;BME280;31519;45.408;10.962;2023-03-20T01:21:40;101065.72;;;13.72;78.50
45813;BME280;31519;45.408;10.962;2023-03-20T01:24:09;101056.78;;;13.85;78.21
45813;BME280;31519;45.408;10.962;2023-03-20T01:26:38;101059.03;;;14.26;76.82
45813;BME280;31519;45.408;10.962;2023-03-20T01:31:40;101069.91;;;14.12;76.77
45813;BME280;31519;45.408;10.962;2023-03-20T01:34:09;101062.78;;;13.91;77.21
45813;BME280;31519;45.408;10.962;2023-03-20T01:36:37;101063.63;;;14.26;75.89
45813;BME280;31519;45.408;10.962;2023-03-20T01:39:05;101062.66;;;14.30;75.19
45813;BME280;31519;45.408;10.962;2023-03-20T01:41:33;101049.13;;;14.35;74.75
45813;BME280;31519;45.408;10.962;2023-03-20T01:44:05;101051.94;;;14.13;74.86
45813;BME280;31519;45.408;10.962;2023-03-20T01:46:40;101057.50;;;14.25;74.80
45813;BME280;31519;45.408;10.962;2023-03-20T01:51:48;101046.13;;;14.28;74.10
45813;BME280;31519;45.408;10.962;2023-03-20T01:54:18;101045.66;;;14.09;75.18
45813;BME280;31519;45.408;10.962;2023-03-20T01:57:28;101040.44;;;13.95;76.01
45813;BME280;31519;45.408;10.962;2023-03-20T01:59:50;101039.03;;;14.06;75.89
45813;BME280;31519;45.408;10.962;2023-03-20T02:02:22;101034.00;;;14.13;75.43
45813;BME280;31519;45.408;10.962;2023-03-20T02:04:54;101034.47;;;14.24;75.32
45813;BME280;31519;45.408;10.962;2023-03-20T02:07:22;101031.94;;;14.10;75.57
45813;BME280;31519;45.408;10.962;2023-03-20T02:10:17;101033.03;;;14.09;75.43
45813;BME280;31519;45.408;10.962;2023-03-20T02:12:51;101039.19;;;14.27;75.18
45813;BME280;31519;45.408;10.962;2023-03-20T02:15:29;101036.22;;;14.20;74.69
45813;BME280;31519;45.408;10.962;2023-03-20T02:18:11;101037.94;;;14.25;74.04
45813;BME280;31519;45.408;10.962;2023-03-20T02:41:42;101038.19;;;13.80;77.55
45813;BME280;31519;45.408;10.962;2023-03-20T02:44:25;101041.78;;;13.75;77.63
45813;BME280;31519;45.408;10.962;2023-03-20T02:47:03;101028.91;;;13.95;76.89
45813;BME280;31519;45.408;10.962;2023-03-20T03:00:29;101015.16;;;13.70;78.10
45813;BME280;31519;45.408;10.962;2023-03-20T03:03:26;101023.53;;;13.77;78.16
45813;BME280;31519;45.408;10.962;2023-03-20T03:08:20;101013.13;;;13.67;78.37
45813;BME280;31519;45.408;10.962;2023-03-20T03:11:08;101013.09;;;13.59;78.78
45813;BME280;31519;45.408;10.962;2023-03-20T03:13:55;101005.50;;;13.44;79.17
45813;BME280;31519;45.408;10.962;2023-03-20T03:16:32;101003.59;;;13.36;79.72
45813;BME280;31519;45.408;10.962;2023-03-20T03:19:08;101007.47;;;13.21;80.45
45813;BME280;31519;45.408;10.962;2023-03-20T03:21:39;101008.91;;;13.27;80.63
45813;BME280;31519;45.408;10.962;2023-03-20T03:24:20;101005.41;;;13.18;81.04
45813;BME280;31519;45.408;10.962;2023-03-20T03:27:09;101014.28;;;13.36;80.21
45813;BME280;31519;45.408;10.962;2023-03-20T03:29:40;101005.88;;;13.68;78.87
45813;BME280;31519;45.408;10.962;2023-03-20T03:32:19;101008.25;;;13.61;79.02
45813;BME280;31519;45.408;10.962;2023-03-20T03:34:50;101010.53;;;13.45;79.97
45813;BME280;31519;45.408;10.962;2023-03-20T03:38:02;101004.44;;;13.62;79.15
45813;BME280;31519;45.408;10.962;2023-03-20T03:40:18;101009.44;;;13.38;80.07
45813;BME280;31519;45.408;10.962;2023-03-20T03:42:52;101012.03;;;13.29;80.81
45813;BME280;31519;45.408;10.962;2023-03-20T03:45:34;101013.75;;;13.25;81.34
45813;BME280;31519;45.408;10.962;2023-03-20T03:48:06;101018.16;;;13.21;81.75
45813;BME280;31519;45.408;10.962;2023-03-20T03:50:37;101012.66;;;13.26;82.13
45813;BME280;31519;45.408;10.962;2023-03-20T03:53:09;101018.16;;;13.21;82.34
45813;BME280;31519;45.408;10.962;2023-03-20T03:55:41;101018.78;;;13.18;81.80
45813;BME280;31519;45.408;10.962;2023-03-20T03:58:13;101017.06;;;13.22;81.50
45813;BME280;31519;45.408;10.962;2023-03-20T04:00:43;101010.84;;;13.44;81.19
45813;BME280;31519;45.408;10.962;2023-03-20T04:03:12;101002.50;;;13.37;81.14
45813;BME280;31519;45.408;10.962;2023-03-20T04:05:41;101004.06;;;13.38;80.58
45813;BME280;31519;45.408;10.962;2023-03-20T04:08:10;101001.34;;;13.29;79.90
45813;BME280;31519;45.408;10.962;2023-03-20T04:10:40;101006.28;;;13.44;78.56
45813;BME280;31519;45.408;10.962;2023-03-20T04:13:08;101001.22;;;13.34;78.31
45813;BME280;31519;45.408;10.962;2023-03-20T04:15:37;100995.31;;;13.54;77.40
45813;BME280;31519;45.408;10.962;2023-03-20T04:18:07;101003.16;;;13.51;77.17
45813;BME280;31519;45.408;10.962;2023-03-20T04:20:38;101002.59;;;13.23;78.10
45813;BME280;31519;45.408;10.962;2023-03-20T04:23:06;100995.13;;;13.11;78.01
45813;BME280;31519;45.408;10.962;2023-03-20T04:25:35;100995.13;;;13.11;78.22
45813;BME280;31519;45.408;10.962;2023-03-20T04:28:04;101003.13;;;13.34;76.87
45813;BME280;31519;45.408;10.962;2023-03-20T04:30:55;100998.34;;;13.22;77.08
45813;BME280;31519;45.408;10.962;2023-03-20T04:33:37;101001.78;;;13.14;77.45
45813;BME280;31519;45.408;10.962;2023-03-20T04:36:25;101000.13;;;13.35;76.40
45813;BME280;31519;45.408;10.962;2023-03-20T04:38:54;101001.06;;;13.39;76.34
45813;BME280;31519;45.408;10.962;2023-03-20T04:41:25;101001.72;;;13.45;75.59
45813;BME280;31519;45.408;10.962;2023-03-20T04:43:56;100998.97;;;13.19;75.94
45813;BME280;31519;45.408;10.962;2023-03-20T04:46:24;100998.78;;;13.15;75.91
45813;BME280;31519;45.408;10.962;2023-03-20T04:48:52;101004.34;;;12.97;77.00
45813;BME280;31519;45.408;10.962;2023-03-20T04:51:20;101001.09;;;13.08;76.68
45813;BME280;31519;45.408;10.962;2023-03-20T04:53:52;101002.06;;;13.12;76.25
45813;BME280;31519;45.408;10.962;2023-03-20T04:56:20;101008.56;;;12.98;76.81
45813;BME280;31519;45.408;10.962;2023-03-20T04:58:50;101002.75;;;12.96;77.08
45813;BME280;31519;45.408;10.962;2023-03-20T05:01:22;101006.03;;;13.15;76.51
45813;BME280;31519;45.408;10.962;2023-03-20T05:03:50;101008.28;;;12.99;76.94
45813;BME280;31519;45.408;10.962;2023-03-20T05:06:19;101011.09;;;12.94;77.38
45813;BME280;31519;45.408;10.962;2023-03-20T05:08:46;101013.00;;;12.71;77.88
45813;BME280;31519;45.408;10.962;2023-03-20T05:11:16;101003.59;;;12.74;77.92
45813;BME280;31519;45.408;10.962;2023-03-20T05:14:19;101009.09;;;12.77;77.87
45813;BME280;31519;45.408;10.962;2023-03-20T05:17:10;101014.47;;;12.77;78.70
45813;BME280;31519;45.408;10.962;2023-03-20T05:19:50;101010.69;;;12.78;78.12
45813;BME280;31519;45.408;10.962;2023-03-20T05:22:47;101005.66;;;12.55;79.49
45813;BME280;31519;45.408;10.962;2023-03-20T05:25:34;101012.38;;;12.74;78.91
45813;BME280;31519;45.408;10.962;2023-03-20T05:28:28;101009.66;;;12.21;82.35
45813;BME280;31519;45.408;10.962;2023-03-20T05:31:14;101018.94;;;11.74;83.98
45813;BME280;31519;45.408;10.962;2023-03-20T05:34:09;101018.63;;;11.89;84.25
45813;BME280;31519;45.408;10.962;2023-03-20T05:37:03;101022.06;;;12.04;83.47
45813;BME280;31519;45.408;10.962;2023-03-20T05:39:51;101021.78;;;12.05;82.59
45813;BME280;31519;45.408;10.962;2023-03-20T05:42:31;101018.72;;;11.57;84.51
45813;BME280;31519;45.408;10.962;2023-03-20T05:45:16;101027.13;;;11.78;83.95
45813;BME280;31519;45.408;10.962;2023-03-20T05:47:50;101022.97;;;11.99;82.42
45813;BME280;31519;45.408;10.962;2023-03-20T05:50:47;101028.53;;;12.25;81.12
45813;BME280;31519;45.408;10.962;2023-03-20T05:53:42;101034.28;;;12.18;81.13
45813;BME280;31519;45.408;10.962;2023-03-20T05:56:28;101030.84;;;12.18;81.62
45813;BME280;31519;45.408;10.962;2023-03-20T05:59:10;101043.00;;;12.10;80.72
45813;BME280;31519;45.408;10.962;2023-03-20T06:01:52;101045.59;;;12.02;81.83
45813;BME280;31519;45.408;10.962;2023-03-20T06:04:26;101050.38;;;12.27;80.90
45813;BME280;31519;45.408;10.962;2023-03-20T06:07:17;101059.16;;;12.05;81.25
45813;BME280;31519;45.408;10.962;2023-03-20T06:09:55;101061.59;;;12.15;81.46
45813;BME280;31519;45.408;10.962;2023-03-20T06:12:23;101066.44;;;12.49;79.75
45813;BME280;31519;45.408;10.962;2023-03-20T06:14:51;101070.88;;;12.76;78.46
45813;BME280;31519;45.408;10.962;2023-03-20T06:17:21;101075.56;;;12.70;77.90
45813;BME280;31519;45.408;10.962;2023-03-20T06:19:53;101079.06;;;12.57;78.59
45813;BME280;31519;45.408;10.962;2023-03-20T06:22:22;101094.53;;;12.60;78.34
45813;BME280;31519;45.408;10.962;2023-03-20T06:24:50;101087.47;;;12.64;78.36
45813;BME280;31519;45.408;10.962;2023-03-20T06:27:19;101091.53;;;12.62;78.46
45813;BME280;31519;45.408;10.962;2023-03-20T06:29:48;101097.16;;;12.74;78.39
45813;BME280;31519;45.408;10.962;2023-03-20T06:32:25;101098.78;;;13.06;77.15
45813;BME280;31519;45.408;10.962;2023-03-20T06:34:56;101093.16;;;13.38;75.33
45813;BME280;31519;45.408;10.962;2023-03-20T06:37:25;101090.81;;;13.45;74.97
45813;BME280;31519;45.408;10.962;2023-03-20T06:40:00;101088.88;;;13.28;75.48
45813;BME280;31519;45.408;10.962;2023-03-20T06:42:29;101095.59;;;13.57;75.06
45813;BME280;31519;45.408;10.962;2023-03-20T06:44:57;101101.00;;;13.65;74.86
45813;BME280;31519;45.408;10.962;2023-03-20T06:47:50;101103.00;;;14.08;73.02
45813;BME280;31519;45.408;10.962;2023-03-20T06:50:17;101103.66;;;14.22;71.86
45813;BME280;31519;45.408;10.962;2023-03-20T06:52:46;101106.66;;;14.29;71.31
45813;BME280;31519;45.408;10.962;2023-03-20T06:55:50;101106.53;;;14.34;70.86
45813;BME280;31519;45.408;10.962;2023-03-20T06:58:18;101110.44;;;14.28;70.99
45813;BME280;31519;45.408;10.962;2023-03-20T07:00:49;101115.81;;;14.28;71.07
45813;BME280;31519;45.408;10.962;2023-03-20T07:03:19;101116.34;;;14.47;70.51
45813;BME280;31519;45.408;10.962;2023-03-20T07:05:48;101102.59;;;14.40;70.59
45813;BME280;31519;45.408;10.962;2023-03-20T07:08:19;101103.88;;;14.43;70.59
45813;BME280;31519;45.408;10.962;2023-03-20T07:10:48;101110.19;;;14.55;70.13
45813;BME280;31519;45.408;10.962;2023-03-20T07:13:16;101108.91;;;14.87;69.39
45813;BME280;31519;45.408;10.962;2023-03-20T07:15:45;101117.44;;;14.98;69.13
45813;BME280;31519;45.408;10.962;2023-03-20T07:18:32;101110.66;;;14.66;70.38
45813;BME280;31519;45.408;10.962;2023-03-20T07:21:00;101109.41;;;14.46;71.23
45813;BME280;31519;45.408;10.962;2023-03-20T07:23:31;101106.41;;;14.56;71.01
45813;BME280;31519;45.408;10.962;2023-03-20T07:26:02;101103.56;;;14.70;70.62
45813;BME280;31519;45.408;10.962;2023-03-20T07:28:31;101104.34;;;14.71;70.67
45813;BME280;31519;45.408;10.962;2023-03-20T07:31:22;101104.00;;;14.81;70.86
45813;BME280;31519;45.408;10.962;2023-03-20T07:34:09;101108.94;;;14.70;71.53
45813;BME280;31519;45.408;10.962;2023-03-20T07:36:40;101107.19;;;14.83;71.79
45813;BME280;31519;45.408;10.962;2023-03-20T07:39:09;101107.00;;;15.05;71.03
45813;BME280;31519;45.408;10.962;2023-03-20T07:41:40;101112.19;;;15.10;70.66
45813;BME280;31519;45.408;10.962;2023-03-20T07:44:10;101115.31;;;15.29;69.75
45813;BME280;31519;45.408;10.962;2023-03-20T07:46:58;101118.81;;;15.21;70.23
45813;BME280;31519;45.408;10.962;2023-03-20T07:49:26;101117.38;;;15.15;70.59
45813;BME280;31519;45.408;10.962;2023-03-20T07:51:53;101108.06;;;15.21;70.79
45813;BME280;31519;45.408;10.962;2023-03-20T07:54:22;101111.13;;;15.58;69.66
45813;BME280;31519;45.408;10.962;2023-03-20T07:56:50;101113.59;;;15.71;69.78
45813;BME280;31519;45.408;10.962;2023-03-20T07:59:18;101111.94;;;16.37;67.86
45813;BME280;31519;45.408;10.962;2023-03-20T08:01:46;101120.53;;;16.31;68.05
45813;BME280;31519;45.408;10.962;2023-03-20T08:04:13;101114.97;;;16.77;67.04
45813;BME280;31519;45.408;10.962;2023-03-20T08:06:45;101109.66;;;16.90;67.07
45813;BME280;31519;45.408;10.962;2023-03-20T08:09:14;101106.09;;;16.98;66.63
45813;BME280;31519;45.408;10.962;2023-03-20T08:11:42;101111.59;;;17.01;66.79
45813;BME280;31519;45.408;10.962;2023-03-20T08:14:10;101110.16;;;17.16;67.02
45813;BME280;31519;45.408;10.962;2023-03-20T08:16:37;101105.16;;;17.51;65.47
45813;BME280;31519;45.408;10.962;2023-03-20T08:19:06;101110.03;;;17.57;65.35
45813;BME280;31519;45.408;10.962;2023-03-20T08:21:33;101120.50;;;17.71;65.44
45813;BME280;31519;45.408;10.962;2023-03-20T08:24:01;101125.53;;;17.97;65.32
45813;BME280;31519;45.408;10.962;2023-03-20T08:26:29;101125.19;;;18.23;64.68
45813;BME280;31519;45.408;10.962;2023-03-20T08:28:57;101114.22;;;18.43;63.37
45813;BME280;31519;45.408;10.962;2023-03-20T08:31:25;101121.91;;;18.41;63.78
45813;BME280;31519;45.408;10.962;2023-03-20T08:33:54;101119.75;;;18.35;62.57
45813;BME280;31519;45.408;10.962;2023-03-20T08:36:22;101112.50;;;18.23;62.37
45813;BME280;31519;45.408;10.962;2023-03-20T08:38:50;101116.56;;;18.69;61.41
45813;BME280;31519;45.408;10.962;2023-03-20T08:41:18;101121.25;;;18.72;61.39
45813;BME280;31519;45.408;10.962;2023-03-20T08:43:46;101122.03;;;18.73;61.24
45813;BME280;31519;45.408;10.962;2023-03-20T08:46:14;101119.38;;;18.48;61.92
45813;BME280;31519;45.408;10.962;2023-03-20T08:48:42;101124.78;;;18.61;62.28
45813;BME280;31519;45.408;10.962;2023-03-20T08:51:09;101119.97;;;18.82;61.30
45813;BME280;31519;45.408;10.962;2023-03-20T08:53:38;101122.06;;;18.88;60.53
45813;BME280;31519;45.408;10.962;2023-03-20T08:56:05;101120.34;;;19.24;58.51
45813;BME280;31519;45.408;10.962;2023-03-20T08:58:34;101118.88;;;18.83;58.21
45813;BME280;31519;45.408;10.962;2023-03-20T09:01:05;101118.19;;;18.46;59.54
45813;BME280;31519;45.408;10.962;2023-03-20T09:03:33;101113.28;;;19.19;58.29
45813;BME280;31519;45.408;10.962;2023-03-20T09:06:04;101120.81;;;19.57;57.49
45813;BME280;31519;45.408;10.962;2023-03-20T09:08:32;101115.09;;;19.31;56.89
45813;BME280;31519;45.408;10.962;2023-03-20T09:11:00;101114.31;;;18.47;58.76
45813;BME280;31519;45.408;10.962;2023-03-20T09:13:28;101114.22;;;17.91;60.75
45813;BME280;31519;45.408;10.962;2023-03-20T09:15:56;101117.38;;;18.45;59.34
45813;BME280;31519;45.408;10.962;2023-03-20T09:18:24;101118.25;;;19.33;56.74
45813;BME280;31519;45.408;10.962;2023-03-20T09:20:52;101111.19;;;19.91;54.77
45813;BME280;31519;45.408;10.962;2023-03-20T09:23:20;101117.22;;;19.37;55.29
45813;BME280;31519;45.408;10.962;2023-03-20T09:25:48;101116.94;;;18.55;57.56
45813;BME280;31519;45.408;10.962;2023-03-20T09:28:16;101114.03;;;19.48;55.35
45813;BME280;31519;45.408;10.962;2023-03-20T09:30:44;101119.53;;;19.39;53.63
45813;BME280;31519;45.408;10.962;2023-03-20T09:33:12;101119.84;;;19.34;53.62
45813;BME280;31519;45.408;10.962;2023-03-20T09:35:41;101123.16;;;19.43;53.70
45813;BME280;31519;45.408;10.962;2023-03-20T09:38:10;101113.63;;;18.74;54.85
45813;BME280;31519;45.408;10.962;2023-03-20T09:43:15;101111.97;;;18.85;54.46
45813;BME280;31519;45.408;10.962;2023-03-20T09:45:56;101110.28;;;19.09;54.15
45813;BME280;31519;45.408;10.962;2023-03-20T09:51:31;101115.75;;;19.87;51.54
45813;BME280;31519;45.408;10.962;2023-03-20T09:54:07;101107.16;;;20.01;50.97
45813;BME280;31519;45.408;10.962;2023-03-20T09:56:38;101113.00;;;18.81;53.37
45813;BME280;31519;45.408;10.962;2023-03-20T09:59:06;101111.94;;;19.13;52.63
45813;BME280;31519;45.408;10.962;2023-03-20T10:01:45;101112.22;;;19.24;52.63
45813;BME280;31519;45.408;10.962;2023-03-20T10:04:15;101105.31;;;19.70;51.29
45813;BME280;31519;45.408;10.962;2023-03-20T10:06:42;101106.50;;;20.23;48.89
45813;BME280;31519;45.408;10.962;2023-03-20T10:09:14;101111.59;;;20.82;47.88
45813;BME280;31519;45.408;10.962;2023-03-20T10:11:49;101103.06;;;20.42;47.97
45813;BME280;31519;45.408;10.962;2023-03-20T10:17:11;101111.59;;;20.82;46.41
45813;BME280;31519;45.408;10.962;2023-03-20T10:19:48;101109.25;;;20.61;47.85
45813;BME280;31519;45.408;10.962;2023-03-20T10:22:22;101107.47;;;21.53;46.16
45813;BME280;31519;45.408;10.962;2023-03-20T10:27:37;101099.34;;;20.88;46.01
45813;BME280;31519;45.408;10.962;2023-03-20T10:32:38;101098.03;;;21.01;44.50
45813;BME280;31519;45.408;10.962;2023-03-20T10:35:17;101094.72;;;20.89;44.77
45813;BME280;31519;45.408;10.962;2023-03-20T10:40:36;101086.16;;;21.09;43.86
45813;BME280;31519;45.408;10.962;2023-03-20T10:43:25;101095.09;;;21.10;44.69
45813;BME280;31519;45.408;10.962;2023-03-20T10:46:03;101082.16;;;21.22;44.11
45813;BME280;31519;45.408;10.962;2023-03-20T10:48:36;101086.50;;;22.59;41.77
45813;BME280;31519;45.408;10.962;2023-03-20T10:51:05;101073.72;;;22.63;41.06
45813;BME280;31519;45.408;10.962;2023-03-20T10:53:41;101076.91;;;21.56;42.38
45813;BME280;31519;45.408;10.962;2023-03-20T10:56:35;101074.72;;;20.97;43.13
45813;BME280;31519;45.408;10.962;2023-03-20T10:59:03;101074.34;;;20.56;44.64
45813;BME280;31519;45.408;10.962;2023-03-20T11:01:33;101063.72;;;19.93;45.47
45813;BME280;31519;45.408;10.962;2023-03-20T11:04:02;101066.88;;;20.69;44.31
45813;BME280;31519;45.408;10.962;2023-03-20T11:06:31;101060.25;;;21.54;42.51
45813;BME280;31519;45.408;10.962;2023-03-20T11:09:09;101062.75;;;20.37;44.37
45813;BME280;31519;45.408;10.962;2023-03-20T11:11:38;101054.66;;;20.78;43.89
45813;BME280;31519;45.408;10.962;2023-03-20T11:14:53;101057.69;;;20.96;42.69
45813;BME280;31519;45.408;10.962;2023-03-20T11:17:02;101053.06;;;20.55;43.97
45813;BME280;31519;45.408;10.962;2023-03-20T11:19:34;101040.50;;;21.53;42.32
45813;BME280;31519;45.408;10.962;2023-03-20T11:22:08;101053.41;;;21.63;41.26
45813;BME280;31519;45.408;10.962;2023-03-20T11:24:37;101059.19;;;21.88;40.53
45813;BME280;31519;45.408;10.962;2023-03-20T11:27:11;101061.25;;;22.25;40.07
45813;BME280;31519;45.408;10.962;2023-03-20T11:29:39;101045.69;;;22.88;39.46
45813;BME280;31519;45.408;10.962;2023-03-20T11:32:29;101048.97;;;21.52;41.10
45813;BME280;31519;45.408;10.962;2023-03-20T11:35:20;101045.56;;;22.78;39.78
45813;BME280;31519;45.408;10.962;2023-03-20T11:37:46;101044.59;;;21.96;40.40
45813;BME280;31519;45.408;10.962;2023-03-20T11:40:20;101037.19;;;22.23;39.77
45813;BME280;31519;45.408;10.962;2023-03-20T11:42:57;101039.50;;;22.54;39.20
45813;BME280;31519;45.408;10.962;2023-03-20T11:45:34;101041.78;;;22.49;38.74
45813;BME280;31519;45.408;10.962;2023-03-20T11:48:03;101043.72;;;23.29;37.61
45813;BME280;31519;45.408;10.962;2023-03-20T11:50:40;101023.88;;;23.76;37.52
45813;BME280;31519;45.408;10.962;2023-03-20T11:53:18;101021.56;;;24.93;35.52
45813;BME280;31519;45.408;10.962;2023-03-20T12:01:29;101021.94;;;23.80;36.13
45813;BME280;31519;45.408;10.962;2023-03-20T12:04:06;101007.09;;;24.57;35.10
45813;BME280;31519;45.408;10.962;2023-03-20T12:11:50;101015.16;;;23.02;37.28
45813;BME280;31519;45.408;10.962;2023-03-20T12:17:00;101002.97;;;21.33;40.32
45813;BME280;31519;45.408;10.962;2023-03-20T12:19:31;101002.72;;;21.15;40.68
45813;BME280;31519;45.408;10.962;2023-03-20T12:22:06;101009.63;;;21.12;40.71
45813;BME280;31519;45.408;10.962;2023-03-20T12:24:44;101001.88;;;21.90;39.53
45813;BME280;31519;45.408;10.962;2023-03-20T12:27:20;100994.06;;;22.51;38.34
45813;BME280;31519;45.408;10.962;2023-03-20T12:29:54;100987.69;;;23.69;37.09
45813;BME280;31519;45.408;10.962;2023-03-20T12:32:30;100998.13;;;21.98;39.83
45813;BME280;31519;45.408;10.962;2023-03-20T12:35:10;100992.78;;;22.05;40.11
45813;BME280;31519;45.408;10.962;2023-03-20T12:37:42;100985.88;;;21.55;40.90
45813;BME280;31519;45.408;10.962;2023-03-20T12:40:16;100981.34;;;21.36;40.69
45813;BME280;31519;45.408;10.962;2023-03-20T12:42:52;100987.66;;;22.00;39.50
45813;BME280;31519;45.408;10.962;2023-03-20T12:45:26;100987.50;;;22.52;38.45
45813;BME280;31519;45.408;10.962;2023-03-20T12:53:03;100989.09;;;22.20;38.76
45813;BME280;31519;45.408;10.962;2023-03-20T12:58:08;100976.66;;;21.33;40.41
45813;BME280;31519;45.408;10.962;2023-03-20T13:00:42;100975.94;;;22.22;39.02
45813;BME280;31519;45.408;10.962;2023-03-20T13:03:25;100979.19;;;23.19;37.54
45813;BME280;31519;45.408;10.962;2023-03-20T13:16:55;100965.69;;;21.49;39.91
45813;BME280;31519;45.408;10.962;2023-03-20T13:19:33;100968.94;;;22.98;38.18
45813;BME280;31519;45.408;10.962;2023-03-20T13:22:12;100966.03;;;21.77;39.40
45813;BME280;31519;45.408;10.962;2023-03-20T13:25:00;100962.69;;;22.17;38.82
45813;BME280;31519;45.408;10.962;2023-03-20T13:27:39;100951.72;;;21.77;39.48
45813;BME280;31519;45.408;10.962;2023-03-20T13:32:44;100958.09;;;22.62;38.12
45813;BME280;31519;45.408;10.962;2023-03-20T13:35:22;100954.47;;;23.38;36.66
45813;BME280;31519;45.408;10.962;2023-03-20T13:38:15;100956.34;;;22.06;38.34
45813;BME280;31519;45.408;10.962;2023-03-20T13:40:45;100956.34;;;22.39;38.08
45813;BME280;31519;45.408;10.962;2023-03-20T13:43:19;100953.97;;;23.22;37.51
45813;BME280;31519;45.408;10.962;2023-03-20T13:45:53;100954.22;;;23.61;36.18
45813;BME280;31519;45.408;10.962;2023-03-20T13:56:06;100933.41;;;23.25;36.75
45813;BME280;31519;45.408;10.962;2023-03-20T14:01:10;100955.84;;;22.27;38.69
45813;BME280;31519;45.408;10.962;2023-03-20T14:03:43;100959.44;;;22.41;38.88
45813;BME280;31519;45.408;10.962;2023-03-20T14:06:39;100958.41;;;22.16;39.33
45813;BME280;31519;45.408;10.962;2023-03-20T14:09:02;100950.34;;;23.04;37.80
45813;BME280;31519;45.408;10.962;2023-03-20T14:11:31;100945.84;;;24.02;36.81
45813;BME280;31519;45.408;10.962;2023-03-20T14:14:13;100936.94;;;24.05;35.82
45813;BME280;31519;45.408;10.962;2023-03-20T14:16:42;100937.88;;;23.51;36.75
45813;BME280;31519;45.408;10.962;2023-03-20T14:19:17;100943.59;;;23.38;36.66
45813;BME280;31519;45.408;10.962;2023-03-20T14:21:47;100947.13;;;22.88;37.52
45813;BME280;31519;45.408;10.962;2023-03-20T14:24:16;100951.69;;;22.40;39.31
45813;BME280;31519;45.408;10.962;2023-03-20T14:26:49;100944.97;;;23.15;38.30
45813;BME280;31519;45.408;10.962;2023-03-20T14:29:30;100948.41;;;22.24;39.15
45813;BME280;31519;45.408;10.962;2023-03-20T14:34:46;100929.94;;;24.07;36.37
45813;BME280;31519;45.408;10.962;2023-03-20T14:42:34;100929.00;;;23.64;36.68
45813;BME280;31519;45.408;10.962;2023-03-20T14:52:58;100929.44;;;23.77;36.78
45813;BME280;31519;45.408;10.962;2023-03-20T14:55:29;100928.38;;;23.27;37.72
45813;BME280;31519;45.408;10.962;2023-03-20T14:58:01;100930.59;;;23.79;36.81
45813;BME280;31519;45.408;10.962;2023-03-20T15:00:33;100937.84;;;24.69;35.02
45813;BME280;31519;45.408;10.962;2023-03-20T15:03:06;100926.56;;;24.78;34.92
45813;BME280;31519;45.408;10.962;2023-03-20T15:05:36;100932.41;;;26.23;32.83
45813;BME280;31519;45.408;10.962;2023-03-20T15:08:09;100921.56;;;27.53;30.78
45813;BME280;31519;45.408;10.962;2023-03-20T15:10:45;100925.16;;;28.07;30.10
45813;BME280;31519;45.408;10.962;2023-03-20T15:13:15;100932.19;;;25.86;32.55